Latest Coastal Weather Observations for Cape Otway

IDV60701

Issued at 12:21 pm EDT Saturday 16 December 2017 (issued every 10 minutes, with the page automatically refreshed every 10 minutes)

About coastal observations | Map of coastal stations | Coastal observations for VIC | Marine services | Other Formats
Station Details ID: 090015 Name: CAPE OTWAY LIGHTHOUSE Lat: -38.86 Lon: 143.51 Height: 82.0 m
Data from the previous 72 hours. | See also: Recent months at Cape Otway
Date/Time
EDT
Temp
°C
Wind Pressure Rain since
9am
mm
Weather Cloud Vis
km
Sea
Height
m
Swell
Dir  Spd
kts
Gust
kts
hPa Trend Height
m
Period
s
Dir
16/12:00pm 18.1 W 11 15 1015.8 - 0.0 - - - - - - -
16/11:30am 18.6 W 13 18 1015.5 - 0.0 - - - - - - -
16/11:00am 17.8 W 14 18 1015.3 - 0.0 - - - - - - -
16/10:30am 18.2 W 10 14 1015.2 - 0.0 - - - - - - -
16/10:00am 18.2 NW 7 11 1014.8 - 0.0 - - - - - - -
16/09:30am 17.5 NW 7 10 1014.6 - 0.0 - - - - - - -
16/09:00am 17.3 NW 8 12 1014.5 - 0.0 - - - - - - -
16/08:30am 16.9 NW 9 12 1014.4 - 0.0 - - - - - - -
16/08:00am 16.0 NW 8 12 1014.2 - 0.0 - - - - - - -
16/07:30am 15.1 NNW 8 10 1013.9 - 0.0 - - - - - - -
16/07:00am 14.1 NNW 8 11 1013.5 - 0.0 - - - - - - -
16/06:30am 13.5 NNW 9 11 1013.2 - 0.0 - - - - - - -
16/06:00am 13.1 NNW 9 11 1012.9 - 0.0 - - - - - - -
16/05:30am 12.9 NNW 9 11 1012.6 - 0.0 - - - - - - -
16/05:00am 12.7 NNW 8 11 1012.4 - 0.0 - - - - - - -
16/04:30am 12.8 NNW 8 10 1012.2 - 0.0 - - - - - - -
16/04:00am 12.8 NNW 9 10 1012.1 - 0.0 - - - - - - -
16/03:30am 12.9 NNW 9 11 1012.1 - 0.0 - - - - - - -
16/03:00am 12.8 NNW 8 9 1012.1 - 0.0 - - - - - - -
16/02:30am 12.9 NNW 8 10 1012.1 - 0.0 - - - - - - -
16/02:00am 13.0 NNW 8 9 1012.3 - 0.0 - - - - - - -
16/01:30am 13.3 NNW 8 11 1012.5 - 0.0 - - - - - - -
16/01:00am 13.3 NNW 8 9 1012.7 - 0.0 - - - - - - -
16/12:30am 13.4 NNW 7 9 1013.1 - 0.0 - - - - - - -
16/12:00am 13.7 NNW 7 9 1013.1 - 0.0 - - - - - - -
 
Date/Time
EDT
Temp
°C
Wind Pressure Rain since
9am
mm
Weather Cloud Vis
km
Sea
Height
m
Swell
Dir  Spd
kts
Gust
kts
hPa Trend Height
m
Period
s
Dir
15/11:30pm 15.0 NW 6 9 1013.0 - 0.0 - - - - - - -
15/11:00pm 15.8 W 7 11 1012.9 - 0.0 - - - - - - -
15/10:30pm 16.1 W 7 11 1012.8 - 0.0 - - - - - - -
15/10:00pm 16.1 W 10 13 1012.7 - 0.0 - - - - - - -
15/09:30pm 16.0 W 11 14 1012.4 - 0.0 - - - - - - -
15/09:00pm 16.2 W 11 15 1012.1 - 0.0 - - - - - - -
15/08:30pm 16.6 W 10 14 1012.0 - 0.0 - - - - - - -
15/08:00pm 17.4 WSW 9 12 1011.9 - 0.0 - - - - - - -
15/07:30pm 18.0 W 9 13 1011.6 - 0.0 - - - - - - -
15/07:00pm 18.5 WSW 9 12 1011.2 - 0.0 - - - - - - -
15/06:30pm 18.6 WSW 8 11 1010.9 - 0.0 - - - - - - -
15/06:00pm 18.7 WSW 8 10 1010.9 - 0.0 - - - - - - -
15/05:30pm 18.7 SW 5 6 1011.0 - 0.0 - - - - - - -
15/05:00pm 19.4 SW 4 6 1011.0 - 0.0 - - - - - - -
15/04:30pm 19.2 S 5 6 1011.2 - 0.0 - - - - - - -
15/04:00pm 19.3 S 5 6 1011.3 - 0.0 - - - - - - -
15/03:30pm 19.4 SSW 5 6 1011.6 - 0.0 - - - - - - -
15/03:00pm 19.6 SSW 6 8 1011.9 - 0.0 - - - - - - -
15/02:30pm 19.5 SSW 5 7 1012.0 - 0.0 - - - - - - -
15/02:00pm 18.7 SSW 6 8 1012.2 - 0.0 - - - - - - -
15/01:30pm 19.0 S 5 7 1012.3 - 0.0 - - - - - - -
15/01:00pm 19.2 SSE 5 7 1012.3 - 0.0 - - - - - - -
15/12:30pm 17.2 S 5 6 1012.3 - 0.0 - - - - - - -
15/12:00pm 18.0 SE 6 7 1012.4 - 0.0 - - - - - - -
15/11:30am 17.1 SSE 4 6 1012.7 - 0.0 - - - - - - -
15/11:00am 17.3 S 5 6 1012.9 - 0.0 - - - - - - -
15/10:30am 16.2 SW 5 7 1013.0 - 0.0 - - - - - - -
15/10:00am 17.0 WSW 6 8 1013.2 - 0.0 - - - - - - -
15/09:30am 16.6 WSW 6 7 1013.1 - 0.0 - - - - - - -
15/09:00am 16.1 WSW 5 6 1013.0 - 0.0 - - - - - - -
15/08:30am 16.1 NW 4 5 1013.0 - 0.0 - - - - - - -
15/08:00am 15.5 WNW 4 5 1013.0 - 0.0 - - - - - - -
15/07:30am 15.1 N 5 6 1012.8 - 0.0 - - - - - - -
15/07:00am 13.5 N 5 6 1012.6 - 0.0 - - - - - - -
15/06:30am 12.1 N 7 8 1012.4 - 0.0 - - - - - - -
15/06:00am 11.6 N 6 7 1012.4 - 0.0 - - - - - - -
15/05:30am 11.7 N 7 8 1012.2 - 0.0 - - - - - - -
15/05:00am 12.1 NNW 7 8 1012.0 - 0.0 - - - - - - -
15/04:30am 12.1 NNW 7 9 1011.8 - 0.0 - - - - - - -
15/04:00am 11.8 N 8 9 1011.8 - 0.0 - - - - - - -
15/03:30am 12.6 WNW 6 8 1011.7 - 0.0 - - - - - - -
15/03:00am 12.7 NNW 7 9 1012.0 - 0.0 - - - - - - -
15/02:30am 13.9 W 5 8 1012.2 - 0.0 - - - - - - -
15/02:00am 14.6 W 6 8 1012.4 - 0.0 - - - - - - -
15/01:30am 14.8 W 5 7 1012.6 - 0.0 - - - - - - -
15/01:00am 15.6 SW 8 11 1012.9 - 0.0 - - - - - - -
15/12:30am 15.5 W 8 11 1013.0 - 0.0 - - - - - - -
15/12:00am 15.5 W 9 12 1013.1 - 0.0 - - - - - - -
 
Date/Time
EDT
Temp
°C
Wind Pressure Rain since
9am
mm
Weather Cloud Vis
km
Sea
Height
m
Swell
Dir  Spd
kts
Gust
kts
hPa Trend Height
m
Period
s
Dir
14/11:30pm 15.8 WSW 11 15 1013.1 - 0.0 - - - - - - -
14/11:00pm 15.6 W 12 16 1013.0 - 0.0 - - - - - - -
14/10:30pm 15.6 WSW 12 17 1012.9 - 0.0 - - - - - - -
14/10:00pm 15.9 W 11 16 1012.7 - 0.0 - - - - - - -
14/09:30pm 15.9 W 13 17 1012.5 - 0.0 - - - - - - -
14/09:00pm 15.8 W 13 18 1012.2 - 0.0 - - - - - - -
14/08:30pm 16.3 W 11 18 1011.8 - 0.0 - - - - - - -
14/08:00pm 16.7 W 15 22 1011.4 - 0.0 - - - - - - -
14/07:30pm 17.2 W 15 21 1010.9 - 0.0 - - - - - - -
14/07:00pm 17.3 W 15 20 1010.7 - 0.0 - - - - - - -
14/06:30pm 17.5 W 17 22 1010.5 - 0.0 - - - - - - -
14/06:00pm 17.7 W 18 24 1010.4 - 0.0 - - - - - - -
14/05:30pm 17.8 W 19 25 1010.1 - 0.0 - - - - - - -
14/05:00pm 18.1 W 18 25 1009.8 - 0.0 - - - - - - -
14/04:30pm 18.4 W 20 25 1009.7 - 0.0 - - - - - - -
14/04:00pm 18.2 W 19 25 1009.5 - 0.0 - - - - - - -
14/03:30pm 18.1 W 18 26 1009.4 - 0.0 - - - - - - -
14/03:00pm 18.5 W 17 23 1009.4 - 0.0 - - - - - - -
14/02:30pm 18.3 W 19 25 1009.4 - 0.0 - - - - - - -
14/02:00pm 18.1 W 17 23 1009.3 - 0.0 - - - - - - -
14/01:30pm 18.0 W 16 21 1009.2 - 0.0 - - - - - - -
14/01:00pm 18.1 W 16 20 1009.1 - 0.0 - - - - - - -
14/12:30pm 17.6 W 16 20 1008.9 - 0.0 - - - - - - -
14/12:00pm 17.5 WSW 14 21 1008.6 - 0.0 - - - - - - -
14/11:30am 17.6 WSW 16 21 1008.5 - 0.0 - - - - - - -
14/11:00am 17.3 WSW 14 19 1008.0 - 0.0 - - - - - - -
14/10:30am 17.1 WSW 13 19 1007.7 - 0.0 - - - - - - -
14/10:00am 16.8 WSW 15 23 1007.4 - 0.0 - - - - - - -
14/09:30am 16.6 WSW 15 19 1007.0 - 0.0 - - - - - - -
14/09:00am 15.8 WSW 11 16 1006.6 - 0.2 Recent precip. - - - - - -
14/08:30am 16.1 W 12 17 1006.3 - 0.2 - - - - - - -
14/08:00am 16.2 WNW 11 15 1005.7 - 0.0 - - - - - - -
14/07:30am 16.1 W 13 17 1005.6 - 0.0 - - - - - - -
14/07:00am 16.2 WNW 11 16 1005.2 - 0.0 - - - - - - -
14/06:30am 16.7 WNW 11 14 1004.7 - 0.0 - - - - - - -
14/06:00am 16.6 W 12 16 1004.3 - 0.0 - - - - - - -
14/05:30am 16.7 W 13 18 1004.0 - 0.0 - - - - - - -
14/05:00am 17.0 W 15 20 1003.8 - 0.0 - - - - - - -
14/04:30am 17.2 W 14 19 1003.6 - 0.0 - - - - - - -
14/04:00am 17.8 WNW 15 21 1003.4 - 0.0 - - - - - - -
14/03:30am 18.1 W 16 24 1002.5 - 0.0 - - - - - - -
14/03:00am 18.8 WNW 13 19 1002.5 - 0.0 - - - - - - -
14/02:30am 19.9 W 12 17 1002.2 - 0.0 - - - - - - -
14/02:00am 22.5 WNW 11 14 1002.3 - 0.0 - - - - - - -
14/01:30am 22.0 NNW 8 9 1002.3 - 0.0 - - - - - - -
14/01:00am 22.0 NNW 8 10 1002.7 - 0.0 - - - - - - -
14/12:30am 21.5 NNW 8 10 1003.1 - 0.0 - - - - - - -
14/12:00am 21.6 NNW 8 10 1003.2 - 0.0 - - - - - - -
 
Date/Time
EDT
Temp
°C
Wind Pressure Rain since
9am
mm
Weather Cloud Vis
km
Sea
Height
m
Swell
Dir  Spd
kts
Gust
kts
hPa Trend Height
m
Period
s
Dir
13/11:30pm 22.3 NW 9 13 1003.4 - 0.0 - - - - - - -
13/11:00pm 22.7 WNW 11 22 1003.4 - 0.0 - - - - - - -
13/10:30pm 21.2 NW 10 14 1004.0 - 0.0 - - - - - - -
13/10:00pm 21.3 WNW 15 22 1004.9 - 0.0 - - - - - - -
13/09:30pm 22.1 WNW 18 28 1004.5 - 0.0 - - - - - - -
13/09:00pm 23.2 WNW 15 25 1003.9 - 0.0 - - - - - - -
13/08:54pm 24.1 WNW 15 25 1004.0 - 0.0 - - - - - - -
13/08:30pm 23.9 WNW 15 20 1003.5 - 0.0 - - - - - - -
13/08:00pm 26.3 WNW 12 17 1003.2 - 0.0 - - - - - - -
13/07:30pm 26.9 NW 9 15 1002.3 - 0.0 - - - - - - -
13/07:00pm 26.5 NW 11 14 1002.2 - 0.0 - - - - - - -
13/06:30pm 26.5 NW 9 12 1001.8 - 0.0 - - - - - - -
13/06:00pm 31.4 WNW 9 15 1001.1 - 0.0 - - - - - - -
13/05:30pm 32.0 E 3 5 1000.7 - 0.0 - - - - - - -
13/05:00pm 32.2 SE 3 4 1000.9 - 0.0 - - - - - - -
13/04:30pm 32.5 SE 5 6 1001.5 - 0.0 - - - - - - -
13/04:00pm 32.5 E 6 9 1001.9 - 0.0 - - - - - - -
13/03:30pm 32.4 SW 5 7 1002.4 - 0.0 - - - - - - -
13/03:00pm 32.6 SE 4 7 1002.9 - 0.0 - - - - - - -
13/02:30pm 31.3 SSE 5 11 1003.4 - 0.0 - - - - - - -
13/02:00pm 29.3 SE 5 7 1003.9 - 0.0 - - - - - - -
13/01:34pm 30.3 NNW 7 13 1004.3 - 0.0 - - - - - - -
13/01:30pm 35.3 NNW 9 16 1004.3 - 0.0 - - - - - - -
13/01:00pm 33.9 N 10 15 1005.0 - 0.0 - - - - - - -
13/12:30pm 33.2 N 12 19 1005.4 - 0.0 - - - - - - -

Other Formats:

Comma delimited format used in spreadsheet applications
http://www.bom.gov.au/fwo/IDV60701/IDV60701.94842.axf

JavaScript Object Notation format (JSON) in row-major order
http://www.bom.gov.au/fwo/IDV60701/IDV60701.94842.json